Time;durP1;ratioP1;P1;durP2;ratioP2;P2;SDS_P1;SDS_P2;PMS_P1;PMS_P2;Temp;Humidity;BMP_temperature;BMP_pressure;BME280_temperature;BME280_humidity;BME280_pressure;Samples;Min_cycle;Max_cycle;Signal;HPM_P1;HPM_P2
2021/03/04 00:00:35;;;;;;;128.52;54.05;;;3.90;99.90;;;;;;4992750;28;20030;-81
2021/03/04 00:03:02;;;;;;;133.73;54.60;;;3.90;99.90;;;;;;4994111;28;20022;-82
2021/03/04 00:05:29;;;;;;;131.27;50.38;;;3.80;99.90;;;;;;4994263;28;20075;-82
2021/03/04 00:07:56;;;;;;;203.68;83.70;;;3.80;99.90;;;;;;4992938;28;20392;-81
2021/03/04 00:10:22;;;;;;;250.93;109.35;;;3.70;99.90;;;;;;4992896;28;20498;-82
2021/03/04 00:12:49;;;;;;;156.68;68.65;;;3.60;99.90;;;;;;4992939;28;20024;-82
2021/03/04 00:15:18;;;;;;;100.95;47.15;;;3.50;99.90;;;;;;4993350;28;20022;-81
2021/03/04 00:17:45;;;;;;;129.55;57.63;;;3.50;99.90;;;;;;4993643;28;20022;-82
2021/03/04 00:20:21;;;;;;;204.07;74.43;;;3.40;99.90;;;;;;4994097;28;20026;-82
2021/03/04 00:22:46;;;;;;;116.85;45.58;;;3.50;99.90;;;;;;4992237;28;20028;-82
2021/03/04 00:25:14;;;;;;;166.57;63.38;;;3.40;99.90;;;;;;4993407;28;20446;-81
2021/03/04 00:27:40;;;;;;;139.35;59.15;;;3.40;99.90;;;;;;4992670;28;20534;-81
2021/03/04 00:30:07;;;;;;;161.23;63.67;;;3.30;99.90;;;;;;4992371;28;20022;-82
2021/03/04 00:32:33;;;;;;;110.65;48.83;;;3.30;99.90;;;;;;4975556;28;20022;-81
2021/03/04 00:34:59;;;;;;;87.63;38.88;;;3.20;99.90;;;;;;4992499;28;20483;-79
2021/03/04 00:37:25;;;;;;;91.72;41.45;;;3.20;99.90;;;;;;4993680;28;20121;-79
2021/03/04 00:39:51;;;;;;;136.30;57.13;;;3.20;99.90;;;;;;4993602;28;20022;-81
2021/03/04 00:42:17;;;;;;;160.02;62.03;;;3.20;99.90;;;;;;4993576;28;20039;-81
2021/03/04 00:44:42;;;;;;;117.90;49.28;;;3.20;99.90;;;;;;4975962;28;20057;-81
2021/03/04 00:47:08;;;;;;;107.90;47.67;;;3.10;99.90;;;;;;4975485;28;20065;-81
2021/03/04 00:49:34;;;;;;;77.68;36.72;;;3.10;99.90;;;;;;4993174;28;20021;-80
2021/03/04 00:51:59;;;;;;;91.22;40.58;;;3.10;99.90;;;;;;4992581;28;20380;-81
2021/03/04 00:54:25;;;;;;;86.13;36.80;;;3.00;99.90;;;;;;4975517;28;20391;-81
2021/03/04 00:56:51;;;;;;;73.80;34.33;;;3.00;99.90;;;;;;4976003;28;20018;-81
2021/03/04 00:59:17;;;;;;;82.43;36.53;;;2.90;99.90;;;;;;4992123;28;20022;-81
2021/03/04 01:01:43;;;;;;;92.50;38.40;;;2.90;99.90;;;;;;4991920;28;20545;-80
2021/03/04 01:04:08;;;;;;;109.80;44.20;;;2.80;99.90;;;;;;4992104;28;20037;-81
2021/03/04 01:06:34;;;;;;;100.07;40.83;;;2.70;99.90;;;;;;4993334;28;20104;-81
2021/03/04 01:09:00;;;;;;;95.75;40.22;;;2.80;99.90;;;;;;4992078;28;20022;-80
2021/03/04 01:11:25;;;;;;;82.15;37.28;;;2.70;99.90;;;;;;4993303;28;20029;-80
2021/03/04 01:13:51;;;;;;;90.18;41.75;;;2.70;99.90;;;;;;4991964;28;20427;-80
2021/03/04 01:16:17;;;;;;;88.90;39.15;;;2.60;99.90;;;;;;4993346;28;20031;-81
2021/03/04 01:18:42;;;;;;;87.88;37.83;;;2.60;99.90;;;;;;4993099;28;20031;-80
2021/03/04 01:21:08;;;;;;;81.72;34.78;;;2.50;99.90;;;;;;4992933;28;20038;-81
2021/03/04 01:23:33;;;;;;;76.82;35.80;;;2.50;99.90;;;;;;4993176;28;20026;-80
2021/03/04 01:25:59;;;;;;;81.90;36.35;;;2.50;99.90;;;;;;4975796;28;20388;-80
2021/03/04 01:28:25;;;;;;;76.38;36.60;;;2.50;99.90;;;;;;4993165;28;20022;-80
2021/03/04 01:30:51;;;;;;;87.93;37.72;;;2.50;99.90;;;;;;4975666;28;20026;-80
2021/03/04 01:33:18;;;;;;;75.50;35.50;;;2.40;99.90;;;;;;4993172;28;20027;-80
2021/03/04 01:35:43;;;;;;;76.07;36.28;;;2.40;99.90;;;;;;4993405;28;20041;-81
2021/03/04 01:38:10;;;;;;;90.03;39.50;;;2.30;99.90;;;;;;4975642;28;20027;-81
2021/03/04 01:40:35;;;;;;;81.32;37.55;;;2.30;99.90;;;;;;4975439;28;20117;-80
2021/03/04 01:43:01;;;;;;;77.35;38.40;;;2.30;99.90;;;;;;4993091;28;20154;-80
2021/03/04 01:45:27;;;;;;;82.78;36.35;;;2.30;99.90;;;;;;4975491;28;20025;-80
2021/03/04 01:47:54;;;;;;;79.35;35.70;;;2.30;99.90;;;;;;4993008;28;20476;-80
2021/03/04 01:50:21;;;;;;;88.55;37.55;;;2.30;99.90;;;;;;4975479;28;20034;-80
2021/03/04 01:52:47;;;;;;;78.78;35.45;;;2.30;99.90;;;;;;4973812;28;20018;-83
2021/03/04 01:55:15;;;;;;;77.03;35.10;;;2.30;99.90;;;;;;4973521;28;20029;-82
2021/03/04 01:57:43;;;;;;;76.82;36.10;;;2.30;99.90;;;;;;4991630;28;20484;-83
2021/03/04 02:00:11;;;;;;;75.57;34.25;;;2.30;99.90;;;;;;4994155;28;20484;-80
2021/03/04 02:02:37;;;;;;;81.82;37.33;;;2.30;99.90;;;;;;4996423;28;20019;-81
2021/03/04 02:05:07;;;;;;;70.22;34.30;;;2.40;99.90;;;;;;4996138;28;20022;-81
2021/03/04 02:07:57;;;;;;;73.03;35.30;;;2.40;99.90;;;;;;4996263;28;20026;-79
2021/03/04 02:10:49;;;;;;;76.53;34.10;;;2.40;99.90;;;;;;4977536;28;20026;-78
2021/03/04 02:13:32;;;;;;;68.82;34.08;;;2.40;99.90;;;;;;4976689;28;20033;-79
2021/03/04 02:16:02;;;;;;;81.10;36.42;;;2.40;99.90;;;;;;4976026;28;20507;-79
2021/03/04 02:18:33;;;;;;;77.45;36.92;;;2.40;99.90;;;;;;4976424;28;20022;-79
2021/03/04 02:21:23;;;;;;;78.43;34.90;;;2.40;99.90;;;;;;4994293;28;20046;-79
2021/03/04 02:24:16;;;;;;;70.20;32.42;;;2.40;99.90;;;;;;4976291;28;20031;-79
2021/03/04 02:26:48;;;;;;;59.33;29.58;;;2.30;99.90;;;;;;4978590;28;20022;-79
2021/03/04 02:29:20;;;;;;;75.90;32.20;;;2.30;99.90;;;;;;4978446;28;20034;-80
2021/03/04 02:31:48;;;;;;;76.75;34.90;;;2.30;99.90;;;;;;4978374;28;20423;-81
2021/03/04 02:34:15;;;;;;;71.85;33.40;;;2.30;99.90;;;;;;4978618;28;20407;-81
2021/03/04 02:36:45;;;;;;;80.32;35.40;;;2.20;99.90;;;;;;4978344;28;20057;-80
2021/03/04 02:39:12;;;;;;;95.45;42.95;;;2.20;99.90;;;;;;4995802;28;20022;-80
2021/03/04 02:41:39;;;;;;;104.72;48.72;;;2.20;99.90;;;;;;4978096;28;20095;-80
2021/03/04 02:44:08;;;;;;;75.53;37.42;;;2.20;99.90;;;;;;4977680;28;20018;-81
2021/03/04 02:46:36;;;;;;;76.68;34.47;;;2.20;99.90;;;;;;4977783;28;20026;-80
2021/03/04 02:49:03;;;;;;;77.80;34.05;;;2.10;99.90;;;;;;4994249;28;20026;-80
2021/03/04 02:51:29;;;;;;;73.68;33.63;;;2.10;99.90;;;;;;4995476;28;20026;-80
2021/03/04 02:53:57;;;;;;;76.75;34.42;;;2.00;99.90;;;;;;4995407;28;20110;-81
2021/03/04 02:56:27;;;;;;;75.85;34.17;;;2.00;99.90;;;;;;4994134;28;20031;-81
2021/03/04 02:58:55;;;;;;;74.50;34.63;;;2.00;99.90;;;;;;4994118;28;20080;-81
2021/03/04 03:01:22;;;;;;;81.28;35.72;;;2.00;99.90;;;;;;4995567;28;20073;-80
2021/03/04 03:03:49;;;;;;;67.68;32.72;;;1.90;99.90;;;;;;4993934;28;20022;-81
2021/03/04 03:06:17;;;;;;;96.28;36.42;;;1.80;99.90;;;;;;4995290;28;20026;-81
2021/03/04 03:08:44;;;;;;;84.43;36.08;;;1.80;99.90;;;;;;4995041;28;20022;-80
2021/03/04 03:11:10;;;;;;;93.70;43.90;;;1.70;99.90;;;;;;4992856;28;20026;-81
2021/03/04 03:13:36;;;;;;;90.30;39.55;;;1.60;99.90;;;;;;4994741;28;20496;-80
2021/03/04 03:16:02;;;;;;;82.47;38.00;;;1.70;99.90;;;;;;4994826;28;20026;-81
2021/03/04 03:18:28;;;;;;;78.43;34.60;;;1.60;99.90;;;;;;4977398;28;20035;-80
2021/03/04 03:20:53;;;;;;;84.80;37.83;;;1.60;99.90;;;;;;4977492;28;20038;-80
2021/03/04 03:23:19;;;;;;;97.45;44.65;;;1.50;99.90;;;;;;4976787;28;20096;-82
2021/03/04 03:25:45;;;;;;;96.57;45.75;;;1.50;99.90;;;;;;4977281;28;20022;-81
2021/03/04 03:28:10;;;;;;;104.28;44.58;;;1.40;99.90;;;;;;4977575;28;20113;-81
2021/03/04 03:30:36;;;;;;;111.38;46.78;;;1.40;99.90;;;;;;4977238;28;20018;-80
2021/03/04 03:33:09;;;;;;;95.43;41.08;;;1.30;99.90;;;;;;4977184;28;20022;-82
2021/03/04 03:35:36;;;;;;;93.47;38.17;;;1.30;99.90;;;;;;4977363;28;20027;-81
2021/03/04 03:38:03;;;;;;;99.32;43.50;;;1.20;99.90;;;;;;4977240;28;20018;-82
2021/03/04 03:40:31;;;;;;;107.57;45.20;;;1.20;99.90;;;;;;4977126;28;20026;-82
2021/03/04 03:42:58;;;;;;;97.90;42.63;;;1.20;99.90;;;;;;4994368;28;20391;-83
2021/03/04 03:45:29;;;;;;;105.38;44.67;;;1.10;99.90;;;;;;4994274;28;20033;-79
2021/03/04 03:47:56;;;;;;;91.15;39.70;;;1.20;99.90;;;;;;4994497;28;20018;-79
2021/03/04 03:50:24;;;;;;;100.25;41.53;;;1.20;99.90;;;;;;4994255;28;20072;-81
2021/03/04 03:52:51;;;;;;;100.35;44.38;;;1.20;99.90;;;;;;4977054;28;20027;-81
2021/03/04 03:55:18;;;;;;;86.57;38.92;;;1.20;99.90;;;;;;4994150;28;20076;-81
2021/03/04 03:57:45;;;;;;;87.78;40.88;;;1.20;99.90;;;;;;4994403;28;20053;-81
2021/03/04 04:00:12;;;;;;;96.90;41.05;;;1.10;99.90;;;;;;4994028;28;20023;-81
2021/03/04 04:02:39;;;;;;;89.78;40.65;;;1.10;99.90;;;;;;4960844;28;20099;-81
2021/03/04 04:05:06;;;;;;;99.18;37.80;;;1.10;99.90;;;;;;4976336;28;20438;-80
2021/03/04 04:07:33;;;;;;;107.18;47.25;;;1.10;99.90;;;;;;4976603;28;20018;-79
2021/03/04 04:10:00;;;;;;;104.93;44.58;;;1.10;99.90;;;;;;4994000;28;20498;-80
2021/03/04 04:12:26;;;;;;;90.55;40.28;;;1.00;99.90;;;;;;4993980;28;20022;-80
2021/03/04 04:14:52;;;;;;;91.88;39.22;;;1.00;99.90;;;;;;4976432;28;20029;-80
2021/03/04 04:17:21;;;;;;;90.70;42.22;;;1.00;99.90;;;;;;4993975;28;20030;-80
2021/03/04 04:19:48;;;;;;;88.90;40.47;;;1.10;99.90;;;;;;4976325;28;20513;-79
2021/03/04 04:22:14;;;;;;;97.13;42.95;;;1.00;99.90;;;;;;4976197;28;20034;-80
2021/03/04 04:24:39;;;;;;;109.95;44.03;;;1.00;99.90;;;;;;4976211;28;20386;-81
2021/03/04 04:27:05;;;;;;;114.53;44.65;;;1.00;99.90;;;;;;4976482;28;20454;-83
2021/03/04 04:29:31;;;;;;;102.80;45.55;;;0.90;99.90;;;;;;4993488;28;20442;-83
2021/03/04 04:31:57;;;;;;;104.07;44.42;;;0.90;99.90;;;;;;4993938;28;20064;-80
2021/03/04 04:34:23;;;;;;;111.80;47.47;;;0.90;99.90;;;;;;4976067;28;20399;-81
2021/03/04 04:36:49;;;;;;;117.40;48.15;;;0.90;99.90;;;;;;4976266;28;20046;-80
2021/03/04 04:39:15;;;;;;;105.95;50.50;;;0.80;99.90;;;;;;4976103;28;20032;-80
2021/03/04 04:41:41;;;;;;;109.35;47.83;;;0.90;99.90;;;;;;4975920;28;20132;-82
2021/03/04 04:44:07;;;;;;;102.82;45.85;;;0.90;99.90;;;;;;4976415;28;20022;-81
2021/03/04 04:46:32;;;;;;;118.20;47.45;;;0.90;99.90;;;;;;4993685;28;20388;-81
2021/03/04 04:48:58;;;;;;;108.82;46.60;;;0.90;99.90;;;;;;4993546;28;20104;-81
2021/03/04 04:51:24;;;;;;;105.22;48.17;;;0.90;99.90;;;;;;4988595;28;20030;-83
2021/03/04 04:53:50;;;;;;;115.63;50.35;;;0.90;99.90;;;;;;5012958;28;20022;-81
2021/03/04 04:56:16;;;;;;;117.43;49.20;;;1.00;99.90;;;;;;5012766;28;20034;-82
2021/03/04 04:58:41;;;;;;;123.97;52.60;;;1.00;99.90;;;;;;5012794;28;20038;-82
2021/03/04 05:01:07;;;;;;;117.93;52.40;;;1.00;99.90;;;;;;5013226;28;20056;-81
2021/03/04 05:03:33;;;;;;;122.78;54.35;;;1.00;99.90;;;;;;5009774;28;20042;-81
2021/03/04 05:05:58;;;;;;;120.20;56.03;;;1.00;99.90;;;;;;4993640;28;20035;-81
2021/03/04 05:08:24;;;;;;;124.55;54.53;;;1.00;99.90;;;;;;4975813;28;20029;-81
2021/03/04 05:10:50;;;;;;;138.63;56.10;;;1.10;99.90;;;;;;4976000;28;20030;-81
2021/03/04 05:13:16;;;;;;;123.57;52.33;;;1.10;99.90;;;;;;4975872;28;20461;-82
2021/03/04 05:15:41;;;;;;;137.07;56.75;;;1.10;99.90;;;;;;4975635;28;20030;-81
2021/03/04 05:18:07;;;;;;;126.75;52.95;;;1.10;99.90;;;;;;4975859;28;20018;-80
2021/03/04 05:20:33;;;;;;;366.10;145.85;;;1.10;99.90;;;;;;4975566;28;20030;-81
2021/03/04 05:22:58;;;;;;;164.82;72.53;;;1.10;99.90;;;;;;4993244;28;20069;-81
2021/03/04 05:25:24;;;;;;;118.03;51.90;;;1.10;99.90;;;;;;4976004;28;20077;-79
2021/03/04 05:27:50;;;;;;;123.18;53.88;;;1.10;99.90;;;;;;4993124;28;20058;-81
2021/03/04 05:30:16;;;;;;;125.10;51.78;;;1.10;99.90;;;;;;4975989;28;20072;-81
2021/03/04 05:32:42;;;;;;;252.77;110.20;;;1.00;99.90;;;;;;4992635;28;20105;-83
2021/03/04 05:35:08;;;;;;;242.68;100.85;;;1.10;99.90;;;;;;4994566;28;20511;-83
2021/03/04 05:37:33;;;;;;;132.73;59.47;;;1.10;99.90;;;;;;4996600;28;20396;-83
2021/03/04 05:39:59;;;;;;;119.85;51.40;;;1.10;99.90;;;;;;4996056;28;20034;-81
2021/03/04 05:42:30;;;;;;;123.03;53.30;;;1.10;99.90;;;;;;4978893;28;20041;-80
2021/03/04 05:44:57;;;;;;;197.45;80.85;;;1.10;99.90;;;;;;4979303;28;20494;-81
2021/03/04 05:47:23;;;;;;;201.00;84.00;;;1.10;99.90;;;;;;4995772;28;20384;-83
2021/03/04 05:50:12;;;;;;;345.17;154.50;;;1.10;99.90;;;;;;4994214;28;20120;-79
2021/03/04 05:52:44;;;;;;;138.68;57.42;;;1.10;99.90;;;;;;4978506;28;20057;-80
2021/03/04 05:55:11;;;;;;;154.48;70.22;;;1.20;99.90;;;;;;4996569;28;20065;-79
2021/03/04 05:57:38;;;;;;;131.50;54.72;;;1.10;99.90;;;;;;4978952;28;20026;-79
2021/03/04 06:00:05;;;;;;;132.60;55.83;;;1.20;99.90;;;;;;4996372;28;20031;-79
2021/03/04 06:02:32;;;;;;;164.57;65.70;;;1.20;99.90;;;;;;5004170;28;20038;-80
2021/03/04 06:04:58;;;;;;;139.38;58.22;;;1.20;99.90;;;;;;4978696;28;20051;-80
2021/03/04 06:07:24;;;;;;;254.65;91.20;;;1.20;99.90;;;;;;4978859;28;20076;-80
2021/03/04 06:09:52;;;;;;;466.40;146.77;;;1.20;99.90;;;;;;4996488;28;20023;-79
2021/03/04 06:12:18;;;;;;;333.88;105.28;;;1.30;99.90;;;;;;4978761;28;20030;-80
2021/03/04 06:14:44;;;;;;;408.95;133.27;;;1.30;99.90;;;;;;4997485;28;20145;-79
2021/03/04 06:17:15;;;;;;;485.70;171.25;;;1.40;99.90;;;;;;4996170;28;20023;-81
2021/03/04 06:19:50;;;;;;;350.25;121.40;;;1.50;99.90;;;;;;4978587;28;20088;-80
2021/03/04 06:22:22;;;;;;;366.58;126.72;;;1.50;99.90;;;;;;4978526;28;20030;-79
2021/03/04 06:24:59;;;;;;;293.48;106.03;;;1.60;99.90;;;;;;4996013;28;20487;-81
2021/03/04 06:27:33;;;;;;;189.20;78.40;;;1.70;99.90;;;;;;4978554;28;20022;-82
2021/03/04 06:30:09;;;;;;;161.43;66.45;;;1.80;99.90;;;;;;4978600;28;20508;-79
2021/03/04 06:32:36;;;;;;;158.57;67.15;;;1.90;99.90;;;;;;4995588;28;20034;-77
2021/03/04 06:35:08;;;;;;;152.63;66.25;;;2.10;99.90;;;;;;4978354;28;20030;-77
2021/03/04 06:37:42;;;;;;;164.35;64.85;;;2.10;99.90;;;;;;4995816;28;20387;-78
2021/03/04 06:40:19;;;;;;;139.25;59.58;;;2.20;99.90;;;;;;4995581;28;20134;-77
2021/03/04 06:42:45;;;;;;;138.63;59.03;;;2.30;99.90;;;;;;4978106;28;20045;-81
2021/03/04 06:45:29;;;;;;;149.98;62.03;;;2.40;99.90;;;;;;4995533;28;20030;-81
2021/03/04 06:48:17;;;;;;;176.90;72.90;;;2.40;99.90;;;;;;4977883;28;20373;-81
2021/03/04 06:50:57;;;;;;;174.20;73.10;;;2.50;99.90;;;;;;4977959;28;20023;-81
2021/03/04 06:53:24;;;;;;;138.43;62.08;;;2.50;99.90;;;;;;4995534;28;20026;-80
2021/03/04 06:56:06;;;;;;;129.55;57.40;;;2.60;99.90;;;;;;4974576;28;20551;-81
2021/03/04 06:58:37;;;;;;;142.32;57.30;;;2.60;99.90;;;;;;5001460;28;20061;-84
2021/03/04 07:01:12;;;;;;;140.15;62.80;;;2.70;99.90;;;;;;4999593;28;20061;-84
2021/03/04 07:03:47;;;;;;;134.77;60.35;;;2.70;99.90;;;;;;4976680;28;20022;-79
2021/03/04 07:06:15;;;;;;;126.30;55.72;;;2.80;99.90;;;;;;4994371;28;20030;-83
2021/03/04 07:08:48;;;;;;;130.50;58.70;;;2.90;99.90;;;;;;4994412;28;20041;-82
2021/03/04 07:11:16;;;;;;;162.10;73.22;;;2.90;99.90;;;;;;4994558;28;20042;-82
2021/03/04 07:13:43;;;;;;;141.10;61.67;;;3.00;99.90;;;;;;4993018;28;20400;-81
2021/03/04 07:16:22;;;;;;;166.07;72.25;;;3.10;99.90;;;;;;4975103;28;20026;-82
2021/03/04 07:18:53;;;;;;;138.27;63.28;;;3.20;99.90;;;;;;4971333;28;20027;-82
2021/03/04 07:21:19;;;;;;;143.00;62.72;;;3.30;99.90;;;;;;4991198;28;20037;-82
2021/03/04 07:23:46;;;;;;;152.10;63.03;;;3.40;99.90;;;;;;4991974;28;20126;-81
2021/03/04 07:26:13;;;;;;;143.82;63.10;;;3.40;99.90;;;;;;4990412;28;20022;-79
2021/03/04 07:28:41;;;;;;;130.07;56.45;;;3.50;99.90;;;;;;4993059;28;20057;-84
2021/03/04 07:31:09;;;;;;;125.30;54.53;;;3.60;99.90;;;;;;4993600;28;20468;-82
2021/03/04 07:33:36;;;;;;;126.70;57.20;;;3.70;99.90;;;;;;4992689;28;20026;-81
2021/03/04 07:36:10;;;;;;;124.38;54.72;;;3.80;99.90;;;;;;4992487;28;20029;-81
2021/03/04 07:38:37;;;;;;;124.65;58.75;;;3.80;99.90;;;;;;4992618;28;20015;-79
2021/03/04 07:41:04;;;;;;;123.45;57.22;;;3.90;99.90;;;;;;4992122;28;20039;-81
2021/03/04 07:43:41;;;;;;;126.95;53.70;;;3.90;99.90;;;;;;4976041;28;20027;-81
2021/03/04 07:46:06;;;;;;;109.28;52.33;;;4.00;99.90;;;;;;4994176;28;20026;-81
2021/03/04 07:48:32;;;;;;;113.72;54.65;;;4.10;99.90;;;;;;4976248;28;20600;-82
2021/03/04 07:51:01;;;;;;;103.93;49.75;;;4.20;99.90;;;;;;4976728;28;20030;-82
2021/03/04 07:53:27;;;;;;;108.90;51.83;;;4.30;99.90;;;;;;4976158;28;20022;-81
2021/03/04 07:55:53;;;;;;;106.50;48.70;;;4.40;99.90;;;;;;4992164;28;20046;-82
2021/03/04 07:58:19;;;;;;;106.85;52.80;;;4.60;99.90;;;;;;4993157;28;20042;-81
2021/03/04 08:00:45;;;;;;;97.68;44.22;;;4.80;99.90;;;;;;4975946;28;20034;-82
2021/03/04 08:03:11;;;;;;;96.18;44.35;;;5.00;99.90;;;;;;4976012;28;20488;-81
2021/03/04 08:05:44;;;;;;;100.07;45.83;;;5.20;99.90;;;;;;4993148;28;20053;-82
2021/03/04 08:08:25;;;;;;;74.20;36.30;;;5.40;99.90;;;;;;4992891;28;20053;-82
2021/03/04 08:10:56;;;;;;;84.45;39.30;;;5.60;99.90;;;;;;4992151;28;20117;-82
2021/03/04 08:13:35;;;;;;;73.28;34.97;;;5.80;99.90;;;;;;4991935;28;20030;-81
2021/03/04 08:16:11;;;;;;;81.40;36.67;;;6.00;99.40;;;;;;4992035;28;20499;-82
2021/03/04 08:18:36;;;;;;;81.15;37.13;;;6.20;99.10;;;;;;4980086;28;20486;-84
2021/03/04 08:21:07;;;;;;;75.75;35.38;;;6.20;94.90;;;;;;4992202;28;20086;-84
2021/03/04 08:23:40;;;;;;;71.72;37.15;;;6.30;91.80;;;;;;4993456;28;20034;-83
2021/03/04 08:26:06;;;;;;;71.30;35.67;;;6.30;91.60;;;;;;4992074;28;20021;-86
2021/03/04 08:28:32;;;;;;;71.13;35.60;;;6.40;91.90;;;;;;4991809;28;20498;-84
2021/03/04 08:31:06;;;;;;;86.65;39.05;;;6.40;89.80;;;;;;4992205;28;20030;-83
2021/03/04 08:33:32;;;;;;;69.13;36.67;;;6.50;89.90;;;;;;4992291;28;20053;-84
2021/03/04 08:36:00;;;;;;;70.70;34.78;;;6.60;89.90;;;;;;4993575;28;20062;-83
2021/03/04 08:38:27;;;;;;;71.05;33.85;;;6.80;88.00;;;;;;4992462;28;20019;-83
2021/03/04 08:40:55;;;;;;;70.07;34.47;;;6.90;86.60;;;;;;4979432;28;20035;-81
2021/03/04 08:43:23;;;;;;;71.35;32.33;;;7.00;85.70;;;;;;4991679;28;20022;-78
2021/03/04 08:45:54;;;;;;;75.13;37.15;;;7.20;84.70;;;;;;4992741;28;20038;-76
2021/03/04 08:48:20;;;;;;;80.70;37.55;;;7.30;85.70;;;;;;4991655;28;20122;-78
2021/03/04 08:50:48;;;;;;;88.68;39.83;;;7.30;83.50;;;;;;4987627;28;20057;-79
2021/03/04 08:53:15;;;;;;;76.05;38.65;;;7.40;85.00;;;;;;4991686;28;20025;-79
2021/03/04 08:55:51;;;;;;;74.00;37.53;;;7.40;83.00;;;;;;4991376;28;20060;-79
2021/03/04 08:58:20;;;;;;;70.20;34.25;;;7.50;82.20;;;;;;4987625;28;20029;-80
2021/03/04 09:01:00;;;;;;;80.05;38.38;;;7.50;82.40;;;;;;4992730;28;20103;-79
2021/03/04 09:03:28;;;;;;;78.20;38.25;;;7.60;81.20;;;;;;4972481;28;20076;-79
2021/03/04 09:06:10;;;;;;;75.13;36.53;;;7.70;82.10;;;;;;4980327;28;20141;-80
2021/03/04 09:08:40;;;;;;;66.43;33.88;;;7.80;82.30;;;;;;4991928;28;20113;-78
2021/03/04 09:11:08;;;;;;;71.45;33.00;;;7.90;78.90;;;;;;4979448;28;20027;-79
2021/03/04 09:13:35;;;;;;;61.10;30.90;;;7.90;76.40;;;;;;4995473;28;20117;-79
2021/03/04 09:16:05;;;;;;;59.83;30.63;;;7.90;75.50;;;;;;4988625;28;20480;-79
2021/03/04 09:18:40;;;;;;;65.68;32.35;;;7.90;74.60;;;;;;4996719;28;20022;-80
2021/03/04 09:21:09;;;;;;;62.95;31.88;;;8.00;76.00;;;;;;4996653;28;20034;-78
2021/03/04 09:23:35;;;;;;;60.00;30.05;;;8.10;75.00;;;;;;4995201;28;20073;-79
2021/03/04 09:26:01;;;;;;;66.50;31.40;;;8.10;72.00;;;;;;4986961;28;20026;-79
2021/03/04 09:28:27;;;;;;;63.38;30.77;;;8.10;73.90;;;;;;4996315;28;20118;-78
2021/03/04 09:30:53;;;;;;;67.53;29.98;;;8.20;73.50;;;;;;4995024;28;20102;-81
2021/03/04 09:33:21;;;;;;;60.55;28.55;;;8.20;72.60;;;;;;4996418;28;20428;-80
2021/03/04 09:35:59;;;;;;;61.90;28.88;;;8.20;71.20;;;;;;4995304;28;20061;-80
2021/03/04 09:38:27;;;;;;;51.05;26.13;;;8.20;70.80;;;;;;4993453;28;20053;-79
2021/03/04 09:40:54;;;;;;;51.92;24.85;;;8.20;67.40;;;;;;4994915;28;20117;-78
2021/03/04 09:43:24;;;;;;;50.53;24.80;;;8.20;65.50;;;;;;4993734;28;20561;-82
2021/03/04 09:45:51;;;;;;;47.08;23.20;;;8.30;65.40;;;;;;4994717;28;20456;-79
2021/03/04 09:48:29;;;;;;;55.63;27.40;;;8.40;64.40;;;;;;4993494;28;20076;-79
2021/03/04 09:50:56;;;;;;;48.40;25.00;;;8.60;65.20;;;;;;4981441;28;20034;-79
2021/03/04 09:53:21;;;;;;;55.78;26.27;;;8.70;64.70;;;;;;4993615;28;20031;-80
2021/03/04 09:55:47;;;;;;;50.22;25.42;;;8.90;63.80;;;;;;4977156;28;20022;-80
2021/03/04 09:58:15;;;;;;;57.65;27.08;;;8.90;63.80;;;;;;4993380;28;20022;-80
2021/03/04 10:00:42;;;;;;;53.50;26.13;;;8.90;64.20;;;;;;4981927;28;20034;-79
2021/03/04 10:03:13;;;;;;;54.35;28.05;;;9.00;65.20;;;;;;4977319;28;20069;-79
2021/03/04 10:05:49;;;;;;;51.05;26.20;;;8.90;64.60;;;;;;4993151;28;20034;-79
2021/03/04 10:08:19;;;;;;;53.92;28.52;;;8.90;65.20;;;;;;4977048;28;20081;-80
2021/03/04 10:10:45;;;;;;;61.10;28.45;;;8.90;65.60;;;;;;4982006;28;20034;-80
2021/03/04 10:13:11;;;;;;;52.95;28.35;;;8.90;65.40;;;;;;4993414;28;20022;-79
2021/03/04 10:15:42;;;;;;;67.45;31.63;;;9.00;66.30;;;;;;4994357;28;20495;-80
2021/03/04 10:18:11;;;;;;;61.72;31.17;;;8.90;65.20;;;;;;4993101;28;20026;-79
2021/03/04 10:20:38;;;;;;;73.85;39.80;;;9.00;66.30;;;;;;4992583;28;20041;-79
2021/03/04 10:23:05;;;;;;;70.93;32.75;;;9.20;65.20;;;;;;4994278;28;20471;-80
2021/03/04 10:25:31;;;;;;;99.15;44.80;;;9.20;64.50;;;;;;4993053;28;20029;-79
2021/03/04 10:28:02;;;;;;;72.75;37.50;;;9.20;63.60;;;;;;4994174;28;20037;-79
2021/03/04 10:30:28;;;;;;;75.35;33.47;;;9.10;63.80;;;;;;4992865;28;20117;-79
2021/03/04 10:32:54;;;;;;;75.20;38.08;;;9.10;63.20;;;;;;4993261;28;20514;-80
2021/03/04 10:35:21;;;;;;;98.68;44.95;;;9.20;64.30;;;;;;4970330;28;705155;-79
2021/03/04 10:37:47;;;;;;;61.28;31.75;;;9.20;64.70;;;;;;4994112;28;20440;-79
2021/03/04 10:40:14;;;;;;;117.05;48.78;;;9.20;63.20;;;;;;4994659;28;20038;-80
2021/03/04 10:42:40;;;;;;;65.15;29.92;;;9.10;62.90;;;;;;4994473;28;20097;-80
2021/03/04 10:45:08;;;;;;;55.85;27.10;;;9.10;63.20;;;;;;4993697;28;20018;-78
2021/03/04 10:47:34;;;;;;;53.05;25.83;;;9.10;63.60;;;;;;4989717;28;20029;-79
2021/03/04 10:50:00;;;;;;;97.75;39.88;;;9.10;64.10;;;;;;4994814;28;20038;-79
2021/03/04 10:52:25;;;;;;;318.35;106.25;;;9.20;63.30;;;;;;4993688;28;20046;-80
2021/03/04 10:54:52;;;;;;;72.47;32.50;;;9.40;65.20;;;;;;4993615;28;20022;-79
2021/03/04 10:57:18;;;;;;;118.53;49.75;;;9.40;63.50;;;;;;4993450;28;20149;-79
2021/03/04 10:59:43;;;;;;;58.40;28.10;;;9.40;63.70;;;;;;4994601;28;20105;-79
2021/03/04 11:02:09;;;;;;;62.30;30.73;;;9.40;63.90;;;;;;4994742;28;20035;-80
2021/03/04 11:04:35;;;;;;;61.08;30.35;;;9.40;63.60;;;;;;4993021;28;20026;-79
2021/03/04 11:07:00;;;;;;;73.78;33.20;;;9.30;64.70;;;;;;4993450;28;20157;-79
2021/03/04 11:09:26;;;;;;;110.65;47.15;;;9.40;64.70;;;;;;4990679;28;20049;-80
2021/03/04 11:11:52;;;;;;;195.15;72.50;;;9.40;64.30;;;;;;4980969;28;20037;-79
2021/03/04 11:14:18;;;;;;;217.70;78.40;;;9.50;63.90;;;;;;4994540;28;20097;-79
2021/03/04 11:16:43;;;;;;;141.02;55.25;;;9.50;64.00;;;;;;4993187;28;20023;-79
2021/03/04 11:19:10;;;;;;;58.53;29.92;;;9.60;63.60;;;;;;4993092;28;20033;-77
2021/03/04 11:21:37;;;;;;;61.55;30.88;;;9.60;62.30;;;;;;4994148;28;20031;-80
2021/03/04 11:24:05;;;;;;;49.38;27.50;;;9.50;61.90;;;;;;4985422;28;20117;-78
2021/03/04 11:26:31;;;;;;;56.70;29.52;;;9.40;61.70;;;;;;4994334;28;20032;-80
2021/03/04 11:28:56;;;;;;;62.70;29.77;;;9.30;62.60;;;;;;4992794;28;20030;-80
2021/03/04 11:31:22;;;;;;;59.30;29.60;;;9.40;63.80;;;;;;4993460;28;20018;-80
2021/03/04 11:33:48;;;;;;;132.85;53.42;;;9.40;62.70;;;;;;4993990;28;20026;-79
2021/03/04 11:36:14;;;;;;;144.95;58.00;;;9.60;63.30;;;;;;4993937;28;20031;-79
2021/03/04 11:38:39;;;;;;;74.47;34.05;;;9.70;63.50;;;;;;4993923;28;20076;-80
2021/03/04 11:41:05;;;;;;;65.57;32.15;;;9.60;62.50;;;;;;4994098;28;20026;-80
2021/03/04 11:43:31;;;;;;;62.28;30.48;;;9.60;62.20;;;;;;4993949;28;20530;-80
2021/03/04 11:45:56;;;;;;;69.57;33.60;;;9.60;62.90;;;;;;4992657;28;20026;-78
2021/03/04 11:48:22;;;;;;;65.47;31.88;;;9.70;63.10;;;;;;4992172;28;20064;-81
2021/03/04 11:50:48;;;;;;;60.72;28.52;;;9.80;62.60;;;;;;4993779;28;20109;-82
2021/03/04 11:53:14;;;;;;;119.75;53.88;;;9.80;61.90;;;;;;4985164;28;20033;-81
2021/03/04 11:55:39;;;;;;;68.90;34.75;;;9.70;60.50;;;;;;4993760;28;20472;-81
2021/03/04 11:58:05;;;;;;;73.93;32.90;;;9.80;59.40;;;;;;4991813;28;20033;-82
2021/03/04 12:00:31;;;;;;;59.60;27.92;;;9.80;59.50;;;;;;4976089;28;20416;-81
2021/03/04 12:02:56;;;;;;;56.80;26.35;;;9.80;59.30;;;;;;4992408;28;20057;-81
2021/03/04 12:05:22;;;;;;;58.35;29.45;;;9.90;59.50;;;;;;4993473;28;20044;-80
2021/03/04 12:07:48;;;;;;;74.65;36.67;;;9.90;59.10;;;;;;4992101;28;20462;-80
2021/03/04 12:10:15;;;;;;;70.05;33.60;;;9.90;59.30;;;;;;4980043;28;20023;-79
2021/03/04 12:12:40;;;;;;;73.80;34.58;;;9.80;58.80;;;;;;4985733;28;20026;-81
2021/03/04 12:15:07;;;;;;;85.85;42.65;;;9.80;58.90;;;;;;4995969;28;20487;-80
2021/03/04 12:17:33;;;;;;;54.90;30.33;;;9.80;59.30;;;;;;4995936;28;20084;-80
2021/03/04 12:19:58;;;;;;;58.35;27.70;;;9.80;59.30;;;;;;4995846;28;20030;-80
2021/03/04 12:22:24;;;;;;;56.97;29.02;;;9.70;59.50;;;;;;5013448;28;20038;-80
2021/03/04 12:24:50;;;;;;;68.78;30.00;;;9.70;60.10;;;;;;5013454;28;20026;-80
2021/03/04 12:27:16;;;;;;;55.83;28.98;;;9.70;60.40;;;;;;5003638;28;20022;-81
2021/03/04 12:29:41;;;;;;;56.53;27.90;;;9.70;59.90;;;;;;4993636;28;20069;-80
2021/03/04 12:32:07;;;;;;;61.90;31.15;;;9.60;60.40;;;;;;4976398;28;20054;-80
2021/03/04 12:34:33;;;;;;;58.25;30.33;;;9.60;61.50;;;;;;4993674;28;20034;-79
2021/03/04 12:36:59;;;;;;;67.05;34.72;;;9.60;62.70;;;;;;4976250;28;20030;-81